createdAt,value
2018-08-03T00:00:19.417Z,0.00
2018-08-03T00:01:19.405Z,0.00
2018-08-03T00:02:19.389Z,0.00
2018-08-03T00:03:19.382Z,0.00
2018-08-03T00:04:19.369Z,0.00
2018-08-03T00:05:19.358Z,0.00
2018-08-03T00:06:19.346Z,0.00
2018-08-03T00:07:19.328Z,0.00
2018-08-03T00:08:19.318Z,0.00
2018-08-03T00:09:19.307Z,0.00
2018-08-03T00:10:19.297Z,0.00
2018-08-03T00:11:19.281Z,0.00
2018-08-03T00:12:19.271Z,0.00
2018-08-03T00:13:19.259Z,0.00
2018-08-03T00:14:19.247Z,0.00
2018-08-03T00:15:19.241Z,0.00
2018-08-03T00:16:19.228Z,0.00
2018-08-03T00:17:19.212Z,0.00
2018-08-03T00:18:19.194Z,0.00
2018-08-03T00:19:19.186Z,0.00
2018-08-03T00:20:19.174Z,0.00
2018-08-03T00:21:19.159Z,0.00
2018-08-03T00:22:19.145Z,0.00
2018-08-03T00:23:19.135Z,0.00
2018-08-03T00:24:19.122Z,0.00
2018-08-03T00:25:19.108Z,0.00
2018-08-03T00:26:19.095Z,0.00
2018-08-03T00:27:19.084Z,0.00
2018-08-03T00:28:19.074Z,0.00
2018-08-03T00:29:19.062Z,0.00
2018-08-03T00:30:19.047Z,0.00
2018-08-03T00:31:19.036Z,0.00
2018-08-03T00:32:19.024Z,0.00
2018-08-03T00:33:19.008Z,0.00
2018-08-03T00:34:18.995Z,0.00
2018-08-03T00:35:18.988Z,0.00
2018-08-03T00:36:18.973Z,0.00
2018-08-03T00:37:18.959Z,0.00
2018-08-03T00:38:18.949Z,0.00
2018-08-03T00:39:18.938Z,0.00
2018-08-03T00:40:18.921Z,0.00
2018-08-03T00:41:18.920Z,0.00
2018-08-03T00:42:18.901Z,0.00
2018-08-03T00:43:18.887Z,0.00
2018-08-03T00:44:18.873Z,0.00
2018-08-03T00:45:18.861Z,0.00
2018-08-03T00:46:18.849Z,0.00
2018-08-03T00:47:18.838Z,0.00
2018-08-03T00:48:18.825Z,0.00
2018-08-03T00:49:18.815Z,0.00
2018-08-03T00:50:18.796Z,0.00
2018-08-03T00:51:18.798Z,0.00
2018-08-03T00:52:18.775Z,0.00
2018-08-03T00:53:18.761Z,0.00
2018-08-03T00:54:18.748Z,0.00
2018-08-03T00:55:18.736Z,0.00
2018-08-03T00:56:18.724Z,0.00
2018-08-03T00:57:18.711Z,0.00
2018-08-03T00:58:18.698Z,0.00
2018-08-03T00:59:18.691Z,0.00
2018-08-03T01:00:18.674Z,0.00
2018-08-03T01:01:18.664Z,0.00
2018-08-03T01:02:18.649Z,0.00
2018-08-03T01:03:18.637Z,0.00
2018-08-03T01:04:18.631Z,0.00
2018-08-03T01:05:18.611Z,0.00
2018-08-03T01:06:18.610Z,0.00
2018-08-03T01:07:18.584Z,0.00
2018-08-03T01:08:18.574Z,0.00
2018-08-03T01:09:18.561Z,0.00
2018-08-03T01:10:18.548Z,0.00
2018-08-03T01:11:18.536Z,0.00
2018-08-03T01:12:18.528Z,0.00
2018-08-03T01:13:18.510Z,0.00
2018-08-03T01:14:18.502Z,0.00
2018-08-03T01:15:18.485Z,0.00
2018-08-03T01:16:18.476Z,0.00
2018-08-03T01:17:18.465Z,0.00
2018-08-03T01:18:18.451Z,0.00
2018-08-03T01:19:18.434Z,0.00
2018-08-03T01:20:18.424Z,0.00
2018-08-03T01:21:18.412Z,0.00
2018-08-03T01:22:18.399Z,0.00
2018-08-03T01:23:18.385Z,0.00
2018-08-03T01:24:18.373Z,0.00
2018-08-03T01:25:18.370Z,0.00
2018-08-03T01:26:18.345Z,0.00
2018-08-03T01:27:18.341Z,0.00
2018-08-03T01:28:18.322Z,0.00
2018-08-03T01:29:18.313Z,0.00
2018-08-03T01:30:18.299Z,0.00
2018-08-03T01:31:18.283Z,0.00
2018-08-03T01:32:18.275Z,0.00
2018-08-03T01:33:18.258Z,0.00
2018-08-03T01:34:18.246Z,0.00
2018-08-03T01:35:18.234Z,0.00
2018-08-03T01:36:18.223Z,0.00
2018-08-03T01:37:18.214Z,0.00
2018-08-03T01:38:18.196Z,0.00
2018-08-03T01:39:18.184Z,0.00
2018-08-03T01:40:18.172Z,0.00
2018-08-03T01:41:18.158Z,0.00
2018-08-03T01:42:18.152Z,0.00
2018-08-03T01:43:18.133Z,0.00
2018-08-03T01:44:18.119Z,0.00
2018-08-03T01:45:18.108Z,0.00
2018-08-03T01:46:18.093Z,0.00
2018-08-03T01:47:18.091Z,0.00
2018-08-03T01:48:18.075Z,0.00
2018-08-03T01:49:18.060Z,0.00
2018-08-03T01:50:18.051Z,0.00
2018-08-03T01:51:18.032Z,0.00
2018-08-03T01:52:18.023Z,0.00
2018-08-03T01:53:18.007Z,0.00
2018-08-03T01:54:17.994Z,0.00
2018-08-03T01:55:17.980Z,0.00
2018-08-03T01:56:17.969Z,0.00
2018-08-03T01:57:17.960Z,0.00
2018-08-03T01:58:17.943Z,0.00
2018-08-03T01:59:17.930Z,0.00
2018-08-03T02:00:17.917Z,0.00
2018-08-03T02:01:17.909Z,0.00
2018-08-03T02:02:17.900Z,0.00
2018-08-03T02:03:17.901Z,0.00
2018-08-03T02:04:17.869Z,0.00
2018-08-03T02:05:17.855Z,0.00
2018-08-03T02:06:17.840Z,0.00
2018-08-03T02:07:17.828Z,0.00
2018-08-03T02:08:17.817Z,0.00
2018-08-03T02:09:17.802Z,0.00
2018-08-03T02:10:17.789Z,0.00
2018-08-03T02:11:17.777Z,0.00
2018-08-03T02:12:17.767Z,0.00
2018-08-03T02:13:17.752Z,0.00
2018-08-03T02:14:17.746Z,0.00
2018-08-03T02:15:17.730Z,0.00
2018-08-03T02:16:17.762Z,0.00
2018-08-03T02:17:17.703Z,0.00
2018-08-03T02:18:17.692Z,0.00
2018-08-03T02:19:17.679Z,0.00
2018-08-03T02:20:17.665Z,0.00
2018-08-03T02:21:17.662Z,0.00
2018-08-03T02:22:17.640Z,0.00
2018-08-03T02:23:17.626Z,0.00
2018-08-03T02:24:17.613Z,0.00
2018-08-03T02:25:17.600Z,0.00
2018-08-03T02:26:17.592Z,0.00
2018-08-03T02:27:17.575Z,0.00
2018-08-03T02:28:17.565Z,0.00
2018-08-03T02:29:17.552Z,0.00
2018-08-03T02:30:17.537Z,0.00
2018-08-03T02:31:17.528Z,0.00
2018-08-03T02:32:17.512Z,0.00
2018-08-03T02:33:17.503Z,0.00
2018-08-03T02:34:17.487Z,0.00
2018-08-03T02:35:17.474Z,0.00
2018-08-03T02:36:17.476Z,0.00
2018-08-03T02:37:17.452Z,0.00
2018-08-03T02:38:17.435Z,0.00
2018-08-03T02:39:17.441Z,0.00
2018-08-03T02:40:17.410Z,0.00
2018-08-03T02:41:17.400Z,0.00
2018-08-03T02:42:17.385Z,0.00
2018-08-03T02:43:17.374Z,0.00
2018-08-03T02:44:17.360Z,0.00
2018-08-03T02:45:17.346Z,0.00
2018-08-03T02:46:17.333Z,0.00
2018-08-03T02:47:17.321Z,0.00
2018-08-03T02:48:17.309Z,0.00
2018-08-03T02:49:17.299Z,0.00
2018-08-03T02:50:17.287Z,0.00
2018-08-03T02:51:17.268Z,0.00
2018-08-03T02:52:17.257Z,0.00
2018-08-03T02:53:17.245Z,0.00
2018-08-03T02:54:17.236Z,0.00
2018-08-03T02:55:17.274Z,0.00
2018-08-03T02:56:17.205Z,0.00
2018-08-03T02:57:17.193Z,0.00
2018-08-03T02:58:17.184Z,0.00
2018-08-03T02:59:17.170Z,0.00
2018-08-03T03:00:17.154Z,0.00
2018-08-03T03:01:17.142Z,0.00
2018-08-03T03:02:17.128Z,0.00
2018-08-03T03:03:17.117Z,0.00
2018-08-03T03:04:17.106Z,0.00
2018-08-03T03:05:17.092Z,0.00
2018-08-03T03:06:17.098Z,0.00
2018-08-03T03:07:17.106Z,0.00
2018-08-03T03:08:17.052Z,0.00
2018-08-03T03:09:17.039Z,0.00
2018-08-03T03:10:17.028Z,0.00
2018-08-03T03:11:17.016Z,0.00
2018-08-03T03:12:17.005Z,0.00
2018-08-03T03:13:16.988Z,0.00
2018-08-03T03:14:16.976Z,0.00
2018-08-03T03:15:16.961Z,0.00
2018-08-03T03:16:16.950Z,0.00
2018-08-03T03:17:16.935Z,0.00
2018-08-03T03:18:16.932Z,0.00
2018-08-03T03:19:16.917Z,0.00
2018-08-03T03:20:16.897Z,0.00
2018-08-03T03:21:16.884Z,0.00
2018-08-03T03:22:16.874Z,0.00
2018-08-03T03:23:16.858Z,0.00
2018-08-03T03:24:16.844Z,0.00
2018-08-03T03:25:16.833Z,0.00
2018-08-03T03:26:16.820Z,0.00
2018-08-03T03:27:16.810Z,0.00
2018-08-03T03:28:16.791Z,0.00
2018-08-03T03:29:16.785Z,0.00
2018-08-03T03:30:16.766Z,0.00
2018-08-03T03:31:16.755Z,0.00
2018-08-03T03:32:16.739Z,0.00
2018-08-03T03:33:16.728Z,0.00
2018-08-03T03:34:16.714Z,0.00
2018-08-03T03:35:16.703Z,0.00
2018-08-03T03:36:16.690Z,0.00
2018-08-03T03:37:16.676Z,0.00
2018-08-03T03:38:16.662Z,0.00
2018-08-03T03:39:16.647Z,0.00
2018-08-03T03:40:16.644Z,0.00
2018-08-03T03:41:16.621Z,0.00
2018-08-03T03:42:16.609Z,0.00
2018-08-03T03:43:16.608Z,0.00
2018-08-03T03:44:16.584Z,0.00
2018-08-03T03:45:16.569Z,0.00
2018-08-03T03:46:16.560Z,0.00
2018-08-03T03:47:16.547Z,0.00
2018-08-03T03:48:16.537Z,0.00
2018-08-03T03:49:16.520Z,0.00
2018-08-03T03:50:16.504Z,0.00
2018-08-03T03:51:16.495Z,0.00
2018-08-03T03:52:16.479Z,0.00
2018-08-03T03:53:16.464Z,0.00
2018-08-03T03:54:16.450Z,0.00
2018-08-03T03:55:16.439Z,0.00
2018-08-03T03:56:16.426Z,0.00
2018-08-03T03:57:16.430Z,0.00
2018-08-03T03:58:16.398Z,0.00
2018-08-03T03:59:16.446Z,0.00
2018-08-03T04:00:16.373Z,0.00
2018-08-03T04:01:16.362Z,0.00
2018-08-03T04:02:16.347Z,0.00
2018-08-03T04:03:16.334Z,0.00
2018-08-03T04:04:16.323Z,0.00
2018-08-03T04:05:16.309Z,0.00
2018-08-03T04:06:16.293Z,0.00
2018-08-03T04:07:16.282Z,0.00
2018-08-03T04:08:16.271Z,0.00
2018-08-03T04:09:16.256Z,0.00
2018-08-03T04:10:16.243Z,0.00
2018-08-03T04:11:16.228Z,0.00
2018-08-03T04:12:16.230Z,0.00
2018-08-03T04:13:16.201Z,0.00
2018-08-03T04:14:16.193Z,0.00
2018-08-03T04:15:16.175Z,0.00
2018-08-03T04:16:16.163Z,0.00
2018-08-03T04:17:16.149Z,0.00
2018-08-03T04:18:16.136Z,0.00
2018-08-03T04:19:16.125Z,0.00
2018-08-03T04:20:16.108Z,0.00
2018-08-03T04:21:16.097Z,0.00
2018-08-03T04:22:16.082Z,0.00
2018-08-03T04:23:16.069Z,0.00
2018-08-03T04:24:16.058Z,0.00
2018-08-03T04:25:16.043Z,0.00
2018-08-03T04:26:16.035Z,0.00
2018-08-03T04:27:16.017Z,0.00
2018-08-03T04:28:16.012Z,0.00
2018-08-03T04:29:15.993Z,0.00
2018-08-03T04:30:15.976Z,0.00
2018-08-03T04:31:15.964Z,0.00
2018-08-03T04:32:15.958Z,0.00
2018-08-03T04:33:15.937Z,0.00
2018-08-03T04:34:15.975Z,0.00
2018-08-03T04:35:15.909Z,0.00
2018-08-03T04:36:15.898Z,0.00
2018-08-03T04:37:15.883Z,0.00
2018-08-03T04:38:15.899Z,0.00
2018-08-03T04:39:15.859Z,0.00
2018-08-03T04:40:15.847Z,0.00
2018-08-03T04:41:15.831Z,0.00
2018-08-03T04:42:15.856Z,0.00
2018-08-03T04:43:15.807Z,0.00
2018-08-03T04:44:15.794Z,0.00
2018-08-03T04:45:15.778Z,0.00
2018-08-03T04:46:15.764Z,0.00
2018-08-03T04:47:15.752Z,0.00
2018-08-03T04:48:15.739Z,0.00
2018-08-03T04:49:15.726Z,0.00
2018-08-03T04:50:15.711Z,0.00
2018-08-03T04:51:15.698Z,0.00
2018-08-03T04:52:15.684Z,0.00
2018-08-03T04:53:15.669Z,0.00
2018-08-03T04:54:15.657Z,0.00
2018-08-03T04:55:15.652Z,0.00
2018-08-03T04:56:15.631Z,0.00
2018-08-03T04:57:15.618Z,0.00
2018-08-03T04:58:15.606Z,0.00
2018-08-03T04:59:15.589Z,0.00
2018-08-03T05:00:15.610Z,5.63
2018-08-03T05:01:15.563Z,5.63
2018-08-03T05:02:15.551Z,5.63
2018-08-03T05:03:15.538Z,5.63
2018-08-03T05:04:15.526Z,5.63
2018-08-03T05:05:15.516Z,5.63
2018-08-03T05:06:15.505Z,5.63
2018-08-03T05:07:15.483Z,5.63
2018-08-03T05:08:15.480Z,5.63
2018-08-03T05:09:15.457Z,5.63
2018-08-03T05:10:15.445Z,5.63
2018-08-03T05:11:15.434Z,5.63
2018-08-03T05:12:15.419Z,5.63
2018-08-03T05:13:15.413Z,5.63
2018-08-03T05:14:15.394Z,5.63
2018-08-03T05:15:15.376Z,5.63
2018-08-03T05:16:15.374Z,5.63
2018-08-03T05:17:15.356Z,5.63
2018-08-03T05:18:15.340Z,5.63
2018-08-03T05:19:15.327Z,5.63
2018-08-03T05:20:15.313Z,5.63
2018-08-03T05:21:15.299Z,5.63
2018-08-03T05:22:15.288Z,5.63
2018-08-03T05:23:15.272Z,5.63
2018-08-03T05:24:15.299Z,5.63
2018-08-03T05:25:15.248Z,5.63
2018-08-03T05:26:15.238Z,5.63
2018-08-03T05:27:15.220Z,5.63
2018-08-03T05:28:15.208Z,5.63
2018-08-03T05:29:15.194Z,5.63
2018-08-03T05:30:15.210Z,5.63
2018-08-03T05:31:15.170Z,5.63
2018-08-03T05:32:15.161Z,5.63
2018-08-03T05:33:15.144Z,5.63
2018-08-03T05:34:15.127Z,5.63
2018-08-03T05:35:15.127Z,5.63
2018-08-03T05:36:15.124Z,5.63
2018-08-03T05:37:15.090Z,5.63
2018-08-03T05:38:15.079Z,5.63
2018-08-03T05:39:15.071Z,5.63
2018-08-03T05:40:15.051Z,5.63
2018-08-03T05:41:15.038Z,5.63
2018-08-03T05:42:15.024Z,5.63
2018-08-03T05:43:15.012Z,5.63
2018-08-03T05:44:15.001Z,5.63
2018-08-03T05:45:14.987Z,5.63
2018-08-03T05:46:14.972Z,5.63
2018-08-03T05:47:14.959Z,5.63
2018-08-03T05:48:14.946Z,5.63
2018-08-03T05:49:14.933Z,5.63
2018-08-03T05:50:14.995Z,5.63
2018-08-03T05:51:14.912Z,5.63
2018-08-03T05:52:14.900Z,5.63
2018-08-03T05:53:14.882Z,5.63
2018-08-03T05:54:14.867Z,5.63
2018-08-03T05:55:14.855Z,5.63
2018-08-03T05:56:14.843Z,5.63
2018-08-03T05:57:14.829Z,5.63
2018-08-03T05:58:14.817Z,5.63
2018-08-03T05:59:14.804Z,5.63
2018-08-03T06:00:14.792Z,11.25
2018-08-03T06:01:14.783Z,11.25
2018-08-03T06:02:14.765Z,11.25
2018-08-03T06:03:14.756Z,11.25
2018-08-03T06:04:14.741Z,11.25
2018-08-03T06:05:14.727Z,11.25
2018-08-03T06:06:14.718Z,11.25
2018-08-03T06:07:14.708Z,11.25
2018-08-03T06:08:14.751Z,11.25
2018-08-03T06:09:14.680Z,11.25
2018-08-03T06:10:14.662Z,11.25
2018-08-03T06:11:14.650Z,11.25
2018-08-03T06:12:14.638Z,11.25
2018-08-03T06:13:14.630Z,11.25
2018-08-03T06:14:14.613Z,11.25
2018-08-03T06:15:14.606Z,11.25
2018-08-03T06:16:14.588Z,11.25
2018-08-03T06:17:14.577Z,11.25
2018-08-03T06:18:14.562Z,11.25
2018-08-03T06:19:14.550Z,11.25
2018-08-03T06:20:14.538Z,11.25
2018-08-03T06:21:14.526Z,11.25
2018-08-03T06:22:14.511Z,11.25
2018-08-03T06:23:14.499Z,11.25
2018-08-03T06:24:14.488Z,11.25
2018-08-03T06:25:14.474Z,11.25
2018-08-03T06:26:14.461Z,11.25
2018-08-03T06:27:14.450Z,11.25
2018-08-03T06:28:14.455Z,11.25
2018-08-03T06:29:14.424Z,11.25
2018-08-03T06:30:14.412Z,11.25
2018-08-03T06:31:14.401Z,11.25
2018-08-03T06:32:14.401Z,11.25
2018-08-03T06:33:14.375Z,11.25
2018-08-03T06:34:14.364Z,11.25
2018-08-03T06:35:14.353Z,11.25
2018-08-03T06:36:14.342Z,11.25
2018-08-03T06:37:14.336Z,11.25
2018-08-03T06:38:14.385Z,16.88
2018-08-03T06:39:14.303Z,16.88
2018-08-03T06:40:14.292Z,16.88
2018-08-03T06:41:14.276Z,16.88
2018-08-03T06:42:14.263Z,16.88
2018-08-03T06:43:14.253Z,16.88
2018-08-03T06:44:14.237Z,16.88
2018-08-03T06:45:14.226Z,16.88
2018-08-03T06:46:14.216Z,16.88
2018-08-03T06:47:14.199Z,16.88
2018-08-03T06:48:14.187Z,16.88
2018-08-03T06:49:14.175Z,16.88
2018-08-03T06:50:14.166Z,16.88
2018-08-03T06:51:14.153Z,16.88
2018-08-03T06:52:14.140Z,16.88
2018-08-03T06:53:14.127Z,16.88
2018-08-03T06:54:14.116Z,16.88
2018-08-03T06:55:14.112Z,16.88
2018-08-03T06:56:14.087Z,16.88
2018-08-03T06:57:14.078Z,16.88
2018-08-03T06:58:14.065Z,16.88
2018-08-03T06:59:14.070Z,16.88
2018-08-03T07:00:14.040Z,16.88
2018-08-03T07:01:14.032Z,16.88
2018-08-03T07:02:14.031Z,16.88
2018-08-03T07:03:14.005Z,16.88
2018-08-03T07:04:13.992Z,16.88
2018-08-03T07:05:13.979Z,16.88
2018-08-03T07:06:13.966Z,16.88
2018-08-03T07:07:13.963Z,22.50
2018-08-03T07:08:13.943Z,22.50
2018-08-03T07:09:13.932Z,22.50
2018-08-03T07:10:13.920Z,22.50
2018-08-03T07:11:13.907Z,22.50
2018-08-03T07:12:13.896Z,22.50
2018-08-03T07:13:13.883Z,22.50
2018-08-03T07:14:13.876Z,22.50
2018-08-03T07:15:13.859Z,22.50
2018-08-03T07:16:13.848Z,22.50
2018-08-03T07:17:13.835Z,22.50
2018-08-03T07:18:13.827Z,22.50
2018-08-03T07:19:13.811Z,22.50
2018-08-03T07:20:13.911Z,22.50
2018-08-03T07:21:13.784Z,22.50
2018-08-03T07:22:13.775Z,22.50
2018-08-03T07:23:13.763Z,22.50
2018-08-03T07:24:13.757Z,22.50
2018-08-03T07:25:13.740Z,22.50
2018-08-03T07:26:13.731Z,22.50
2018-08-03T07:27:13.723Z,22.50
2018-08-03T07:28:13.702Z,28.13
2018-08-03T07:29:13.692Z,28.13
2018-08-03T07:30:13.688Z,28.13
2018-08-03T07:31:13.672Z,28.13
2018-08-03T07:32:13.656Z,28.13
2018-08-03T07:33:13.647Z,28.13
2018-08-03T07:34:13.632Z,28.13
2018-08-03T07:35:13.626Z,33.75
2018-08-03T07:36:13.609Z,33.75
2018-08-03T07:37:13.600Z,33.75
2018-08-03T07:38:13.594Z,33.75
2018-08-03T07:39:13.578Z,33.75
2018-08-03T07:40:13.562Z,39.38
2018-08-03T07:41:13.559Z,39.38
2018-08-03T07:42:13.539Z,39.38
2018-08-03T07:43:13.607Z,39.38
2018-08-03T07:44:13.536Z,39.38
2018-08-03T07:45:13.510Z,45.00
2018-08-03T07:46:13.494Z,45.00
2018-08-03T07:47:13.481Z,45.00
2018-08-03T07:48:13.471Z,45.00
2018-08-03T07:49:13.460Z,45.00
2018-08-03T07:50:13.447Z,45.00
2018-08-03T07:51:13.440Z,45.00
2018-08-03T07:52:13.426Z,45.00
2018-08-03T07:53:13.413Z,45.00
2018-08-03T07:54:13.405Z,45.00
2018-08-03T07:55:13.395Z,45.00
2018-08-03T07:56:13.384Z,45.00
2018-08-03T07:57:13.370Z,50.63
2018-08-03T07:58:13.361Z,50.63
2018-08-03T07:59:13.350Z,50.63
2018-08-03T08:00:13.337Z,50.63
2018-08-03T08:01:13.326Z,50.63
2018-08-03T08:02:13.313Z,50.63
2018-08-03T08:03:13.313Z,56.25
2018-08-03T08:04:13.298Z,56.25
2018-08-03T08:05:13.290Z,56.25
2018-08-03T08:06:13.313Z,56.25
2018-08-03T08:07:13.273Z,56.25
2018-08-03T08:08:13.248Z,56.25
2018-08-03T08:09:13.238Z,56.25
2018-08-03T08:10:13.229Z,61.88
2018-08-03T08:11:13.218Z,61.88
2018-08-03T08:12:13.206Z,67.50
2018-08-03T08:13:13.198Z,61.88
2018-08-03T08:14:13.184Z,61.88
2018-08-03T08:15:13.243Z,61.88
2018-08-03T08:16:13.162Z,61.88
2018-08-03T08:17:13.151Z,61.88
2018-08-03T08:18:13.141Z,61.88
2018-08-03T08:19:13.135Z,61.88
2018-08-03T08:20:13.121Z,61.88
2018-08-03T08:21:13.113Z,61.88
2018-08-03T08:22:13.097Z,61.88
2018-08-03T08:23:13.093Z,61.88
2018-08-03T08:24:13.078Z,61.88
2018-08-03T08:25:13.068Z,61.88
2018-08-03T08:26:13.076Z,61.88
2018-08-03T08:27:13.046Z,61.88
2018-08-03T08:28:13.034Z,67.50
2018-08-03T08:29:13.030Z,67.50
2018-08-03T08:30:13.015Z,67.50
2018-08-03T08:31:13.009Z,67.50
2018-08-03T08:32:12.994Z,67.50
2018-08-03T08:33:12.985Z,67.50
2018-08-03T08:34:12.972Z,67.50
2018-08-03T08:35:12.962Z,67.50
2018-08-03T08:36:12.962Z,67.50
2018-08-03T08:37:12.945Z,67.50
2018-08-03T08:38:12.933Z,67.50
2018-08-03T08:39:12.921Z,67.50
2018-08-03T08:40:12.917Z,67.50
2018-08-03T08:41:12.901Z,67.50
2018-08-03T08:42:12.892Z,67.50
2018-08-03T08:43:12.880Z,67.50
2018-08-03T08:44:12.872Z,67.50
2018-08-03T08:45:12.862Z,73.13
2018-08-03T08:46:12.848Z,73.13
2018-08-03T08:47:12.837Z,73.13
2018-08-03T08:48:12.838Z,73.13
2018-08-03T08:49:12.837Z,73.13
2018-08-03T08:50:12.809Z,73.13
2018-08-03T08:51:12.797Z,73.13
2018-08-03T08:52:12.787Z,73.13
2018-08-03T08:53:12.784Z,73.13
2018-08-03T08:54:12.777Z,73.13
2018-08-03T08:55:12.759Z,73.13
2018-08-03T08:56:12.757Z,73.13
2018-08-03T08:57:12.736Z,73.13
2018-08-03T08:58:12.729Z,73.13
2018-08-03T08:59:12.717Z,73.13
2018-08-03T09:00:12.711Z,73.13
2018-08-03T09:01:12.761Z,73.13
2018-08-03T09:02:12.703Z,73.13
2018-08-03T09:03:12.680Z,73.13
2018-08-03T09:04:12.668Z,73.13
2018-08-03T09:05:12.663Z,73.13
2018-08-03T09:06:12.649Z,78.75
2018-08-03T09:07:12.640Z,78.75
2018-08-03T09:08:12.635Z,78.75
2018-08-03T09:09:12.618Z,78.75
2018-08-03T09:10:12.608Z,78.75
2018-08-03T09:11:12.602Z,78.75
2018-08-03T09:12:12.589Z,78.75
2018-08-03T09:13:12.634Z,78.75
2018-08-03T09:14:12.567Z,78.75
2018-08-03T09:15:12.557Z,78.75
2018-08-03T09:16:12.548Z,78.75
2018-08-03T09:17:12.542Z,78.75
2018-08-03T09:18:12.539Z,78.75
2018-08-03T09:19:12.518Z,78.75
2018-08-03T09:20:12.517Z,78.75
2018-08-03T09:21:12.502Z,78.75
2018-08-03T09:22:12.611Z,78.75
2018-08-03T09:23:12.481Z,78.75
2018-08-03T09:24:12.473Z,78.75
2018-08-03T09:25:12.462Z,78.75
2018-08-03T09:26:12.451Z,78.75
2018-08-03T09:27:12.448Z,78.75
2018-08-03T09:28:12.434Z,84.38
2018-08-03T09:29:12.430Z,84.38
2018-08-03T09:30:12.417Z,84.38
2018-08-03T09:31:12.409Z,84.38
2018-08-03T09:32:12.400Z,84.38
2018-08-03T09:33:12.388Z,78.75
2018-08-03T09:34:12.375Z,78.75
2018-08-03T09:35:12.378Z,84.38
2018-08-03T09:36:12.357Z,84.38
2018-08-03T09:37:12.349Z,84.38
2018-08-03T09:38:12.338Z,84.38
2018-08-03T09:39:12.330Z,84.38
2018-08-03T09:40:12.326Z,84.38
2018-08-03T09:41:12.312Z,84.38
2018-08-03T09:42:12.301Z,84.38
2018-08-03T09:43:12.293Z,84.38
2018-08-03T09:44:12.296Z,84.38
2018-08-03T09:45:12.273Z,84.38
2018-08-03T09:46:12.272Z,84.38
2018-08-03T09:47:12.260Z,84.38
2018-08-03T09:48:12.248Z,84.38
2018-08-03T09:49:12.277Z,84.38
2018-08-03T09:50:12.236Z,84.38
2018-08-03T09:51:12.222Z,84.38
2018-08-03T09:52:12.211Z,84.38
2018-08-03T09:53:12.213Z,84.38
2018-08-03T09:54:12.194Z,84.38
2018-08-03T09:55:12.216Z,84.38
2018-08-03T09:56:12.178Z,84.38
2018-08-03T09:57:12.168Z,84.38
2018-08-03T09:58:12.159Z,84.38
2018-08-03T09:59:12.152Z,84.38
2018-08-03T10:00:12.139Z,84.38
2018-08-03T10:01:12.131Z,84.38
2018-08-03T10:02:12.121Z,84.38
2018-08-03T10:03:12.122Z,84.38
2018-08-03T10:04:12.104Z,84.38
2018-08-03T10:05:12.096Z,84.38
2018-08-03T10:06:12.092Z,84.38
2018-08-03T10:07:12.079Z,84.38
2018-08-03T10:08:12.078Z,84.38
2018-08-03T10:09:12.060Z,84.38
2018-08-03T10:10:12.058Z,84.38
2018-08-03T10:11:12.045Z,84.38
2018-08-03T10:12:12.037Z,84.38
2018-08-03T10:13:12.031Z,84.38
2018-08-03T10:14:12.016Z,84.38
2018-08-03T10:15:12.007Z,84.38
2018-08-03T10:16:12.002Z,84.38
2018-08-03T10:17:11.990Z,84.38
2018-08-03T10:18:11.980Z,84.38
2018-08-03T10:19:11.973Z,84.38
2018-08-03T10:20:11.964Z,84.38
2018-08-03T10:21:11.959Z,84.38
2018-08-03T10:22:11.946Z,84.38
2018-08-03T10:23:11.935Z,84.38
2018-08-03T10:24:11.928Z,84.38
2018-08-03T10:25:11.919Z,84.38
2018-08-03T10:26:11.910Z,84.38
2018-08-03T10:27:11.905Z,84.38
2018-08-03T10:28:11.894Z,84.38
2018-08-03T10:29:11.883Z,84.38
2018-08-03T10:30:11.882Z,90.00
2018-08-03T10:31:11.866Z,90.00
2018-08-03T10:32:11.857Z,90.00
2018-08-03T10:33:11.848Z,90.00
2018-08-03T10:34:11.839Z,84.38
2018-08-03T10:35:11.983Z,90.00
2018-08-03T10:36:11.822Z,84.38
2018-08-03T10:37:11.812Z,84.38
2018-08-03T10:38:11.802Z,84.38
2018-08-03T10:39:11.797Z,84.38
2018-08-03T10:40:11.786Z,90.00
2018-08-03T10:41:11.779Z,90.00
2018-08-03T10:42:11.770Z,90.00
2018-08-03T10:43:11.799Z,90.00
2018-08-03T10:44:11.755Z,90.00
2018-08-03T10:45:11.747Z,90.00
2018-08-03T10:46:11.737Z,90.00
2018-08-03T10:47:11.770Z,90.00
2018-08-03T10:48:11.721Z,90.00
2018-08-03T10:49:11.719Z,84.38
2018-08-03T10:50:11.708Z,78.75
2018-08-03T10:51:11.703Z,84.38
2018-08-03T10:52:11.691Z,84.38
2018-08-03T10:53:11.681Z,84.38
2018-08-03T10:54:11.673Z,84.38
2018-08-03T10:55:11.668Z,84.38
2018-08-03T10:56:11.657Z,84.38
2018-08-03T10:57:11.650Z,90.00
2018-08-03T10:58:11.681Z,84.38
2018-08-03T10:59:11.631Z,56.25
2018-08-03T11:00:11.625Z,67.50
2018-08-03T11:01:11.647Z,61.88
2018-08-03T11:02:11.612Z,67.50
2018-08-03T11:03:11.597Z,33.75
2018-08-03T11:04:11.591Z,28.13
2018-08-03T11:05:11.583Z,22.50
2018-08-03T11:06:11.577Z,22.50
2018-08-03T11:07:11.567Z,22.50
2018-08-03T11:08:11.556Z,22.50
2018-08-03T11:09:11.548Z,22.50
2018-08-03T11:10:11.540Z,22.50
2018-08-03T11:11:11.530Z,33.75
2018-08-03T11:12:11.527Z,39.38
2018-08-03T11:13:11.519Z,33.75
2018-08-03T11:14:11.509Z,39.38
2018-08-03T11:15:11.496Z,28.13
2018-08-03T11:16:11.497Z,45.00
2018-08-03T11:17:11.485Z,22.50
2018-08-03T11:18:11.474Z,22.50
2018-08-03T11:19:11.462Z,22.50
2018-08-03T11:20:11.451Z,22.50
2018-08-03T11:21:11.443Z,22.50
2018-08-03T11:22:11.433Z,22.50
2018-08-03T11:23:11.433Z,22.50
2018-08-03T11:24:11.464Z,22.50
2018-08-03T11:25:11.420Z,28.13
2018-08-03T11:26:11.403Z,67.50
2018-08-03T11:27:11.389Z,84.38
2018-08-03T11:28:11.380Z,84.38
2018-08-03T11:29:11.373Z,84.38
2018-08-03T11:30:11.366Z,84.38
2018-08-03T11:31:11.351Z,84.38
2018-08-03T11:32:11.347Z,84.38
2018-08-03T11:33:11.336Z,84.38
2018-08-03T11:34:11.328Z,84.38
2018-08-03T11:35:11.332Z,84.38
2018-08-03T11:36:11.308Z,84.38
2018-08-03T11:37:11.300Z,84.38
2018-08-03T11:38:11.297Z,90.00
2018-08-03T11:39:11.281Z,84.38
2018-08-03T11:40:11.272Z,90.00
2018-08-03T11:41:11.264Z,90.00
2018-08-03T11:42:11.265Z,84.38
2018-08-03T11:43:11.263Z,84.38
2018-08-03T11:44:11.236Z,84.38
2018-08-03T11:45:11.232Z,84.38
2018-08-03T11:46:11.230Z,84.38
2018-08-03T11:47:11.223Z,84.38
2018-08-03T11:48:11.205Z,84.38
2018-08-03T11:49:11.200Z,84.38
2018-08-03T11:50:11.186Z,84.38
2018-08-03T11:51:11.177Z,84.38
2018-08-03T11:52:11.169Z,84.38
2018-08-03T11:53:11.161Z,84.38
2018-08-03T11:54:11.151Z,84.38
2018-08-03T11:55:11.150Z,84.38
2018-08-03T11:56:11.143Z,84.38
2018-08-03T11:57:11.128Z,84.38
2018-08-03T11:58:11.119Z,84.38
2018-08-03T11:59:11.109Z,84.38
2018-08-03T12:00:11.103Z,84.38
2018-08-03T12:01:11.093Z,84.38
2018-08-03T12:02:11.086Z,84.38
2018-08-03T12:03:11.082Z,84.38
2018-08-03T12:04:11.069Z,84.38
2018-08-03T12:05:11.060Z,84.38
2018-08-03T12:06:11.051Z,84.38
2018-08-03T12:07:11.046Z,56.25
2018-08-03T12:08:11.040Z,78.75
2018-08-03T12:09:11.033Z,73.13
2018-08-03T12:10:11.020Z,33.75
2018-08-03T12:11:11.021Z,33.75
2018-08-03T12:12:11.002Z,28.13
2018-08-03T12:13:10.995Z,28.13
2018-08-03T12:14:10.985Z,28.13
2018-08-03T12:15:10.991Z,28.13
2018-08-03T12:16:10.972Z,28.13
2018-08-03T12:17:10.966Z,28.13
2018-08-03T12:18:10.957Z,28.13
2018-08-03T12:19:10.962Z,28.13
2018-08-03T12:20:10.936Z,28.13
2018-08-03T12:21:10.930Z,28.13
2018-08-03T12:22:10.919Z,28.13
2018-08-03T12:23:10.917Z,28.13
2018-08-03T12:24:10.901Z,28.13
2018-08-03T12:25:10.897Z,28.13
2018-08-03T12:26:10.884Z,28.13
2018-08-03T12:27:10.874Z,28.13
2018-08-03T12:28:10.866Z,28.13
2018-08-03T12:29:10.858Z,33.75
2018-08-03T12:30:10.850Z,78.75
2018-08-03T12:31:10.896Z,73.13
2018-08-03T12:32:10.840Z,50.63
2018-08-03T12:33:10.827Z,33.75
2018-08-03T12:34:10.826Z,61.88
2018-08-03T12:35:10.808Z,78.75
2018-08-03T12:36:10.793Z,73.13
2018-08-03T12:37:10.876Z,78.75
2018-08-03T12:38:10.783Z,84.38
2018-08-03T12:39:10.772Z,84.38
2018-08-03T12:40:10.770Z,84.38
2018-08-03T12:41:10.753Z,78.75
2018-08-03T12:42:10.745Z,28.13
2018-08-03T12:43:10.799Z,28.13
2018-08-03T12:44:10.731Z,28.13
2018-08-03T12:45:10.733Z,28.13
2018-08-03T12:46:10.737Z,28.13
2018-08-03T12:47:10.701Z,28.13
2018-08-03T12:48:10.693Z,45.00
2018-08-03T12:49:10.686Z,73.13
2018-08-03T12:50:10.676Z,78.75
2018-08-03T12:51:10.672Z,84.38
2018-08-03T12:52:10.660Z,84.38
2018-08-03T12:53:10.656Z,84.38
2018-08-03T12:54:10.647Z,90.00
2018-08-03T12:55:10.640Z,90.00
2018-08-03T12:56:10.626Z,90.00
2018-08-03T12:57:10.627Z,90.00
2018-08-03T12:58:10.609Z,90.00
2018-08-03T12:59:10.612Z,84.38
2018-08-03T13:00:10.596Z,84.38
2018-08-03T13:01:10.602Z,84.38
2018-08-03T13:02:10.578Z,84.38
2018-08-03T13:03:10.566Z,84.38
2018-08-03T13:04:10.581Z,84.38